createdAt,value
2018-04-12T00:00:16.350Z,7.73
2018-04-12T00:01:16.396Z,7.80
2018-04-12T00:02:16.673Z,7.73
2018-04-12T00:03:16.943Z,7.73
2018-04-12T00:04:16.199Z,7.80
2018-04-12T00:05:16.465Z,7.92
2018-04-12T00:06:17.018Z,8.05
2018-04-12T00:07:16.287Z,8.05
2018-04-12T00:08:16.548Z,8.05
2018-04-12T00:09:16.809Z,8.05
2018-04-12T00:10:17.088Z,8.05
2018-04-12T00:11:17.122Z,8.05
2018-04-12T00:12:16.381Z,8.17
2018-04-12T00:13:16.645Z,8.17
2018-04-12T00:14:16.915Z,8.23
2018-04-12T00:15:17.175Z,8.23
2018-04-12T00:16:16.624Z,8.23
2018-04-12T00:17:16.889Z,8.17
2018-04-12T00:18:17.151Z,8.23
2018-04-12T00:19:16.416Z,8.30
2018-04-12T00:20:16.685Z,8.36
2018-04-12T00:21:16.735Z,8.36
2018-04-12T00:22:17.002Z,8.30
2018-04-12T00:23:16.265Z,8.36
2018-04-12T00:24:16.527Z,8.36
2018-04-12T00:25:16.792Z,8.36
2018-04-12T00:26:17.054Z,8.36
2018-04-12T00:27:16.311Z,8.36
2018-04-12T00:28:16.578Z,8.36
2018-04-12T00:29:16.842Z,8.36
2018-04-12T00:30:17.126Z,8.36
2018-04-12T00:31:17.150Z,8.36
2018-04-12T00:32:16.412Z,8.36
2018-04-12T00:33:16.679Z,8.36
2018-04-12T00:34:16.942Z,8.36
2018-04-12T00:35:16.209Z,8.36
2018-04-12T00:36:16.479Z,8.36
2018-04-12T00:37:16.741Z,8.42
2018-04-12T00:38:17.003Z,8.48
2018-04-12T00:39:16.273Z,8.48
2018-04-12T00:40:16.545Z,8.48
2018-04-12T00:41:16.584Z,8.48
2018-04-12T00:42:16.842Z,8.48
2018-04-12T00:43:17.110Z,8.48
2018-04-12T00:44:16.363Z,8.48
2018-04-12T00:45:16.625Z,8.48
2018-04-12T00:46:16.887Z,8.48
2018-04-12T00:47:17.160Z,8.42
2018-04-12T00:48:16.423Z,8.42
2018-04-12T00:49:16.683Z,8.42
2018-04-12T00:50:16.945Z,8.42
2018-04-12T00:51:16.995Z,8.36
2018-04-12T00:52:16.258Z,8.42
2018-04-12T00:53:16.522Z,8.42
2018-04-12T00:54:16.776Z,8.42
2018-04-12T00:55:17.040Z,8.42
2018-04-12T00:56:16.316Z,8.48
2018-04-12T00:57:16.570Z,8.55
2018-04-12T00:58:16.839Z,8.67
2018-04-12T00:59:17.099Z,8.92
2018-04-12T01:00:16.367Z,9.11
2018-04-12T01:01:16.407Z,9.30
2018-04-12T01:02:16.675Z,9.67
2018-04-12T01:03:16.947Z,9.61
2018-04-12T01:04:16.209Z,10.11
2018-04-12T01:05:16.475Z,10.42
2018-04-12T01:06:16.728Z,10.55
2018-04-12T01:07:17.144Z,10.73
2018-04-12T01:08:16.407Z,10.80
2018-04-12T01:09:16.664Z,10.80
2018-04-12T01:10:16.935Z,10.86
2018-04-12T01:11:16.982Z,10.98
2018-04-12T01:12:16.236Z,10.92
2018-04-12T01:13:16.503Z,11.11
2018-04-12T01:14:16.765Z,11.11
2018-04-12T01:15:17.031Z,11.11
2018-04-12T01:16:16.532Z,11.23
2018-04-12T01:17:16.805Z,11.11
2018-04-12T01:18:17.060Z,11.05
2018-04-12T01:19:16.314Z,11.23
2018-04-12T01:20:16.585Z,11.23
2018-04-12T01:21:16.620Z,11.30
2018-04-12T01:22:16.883Z,11.36
2018-04-12T01:23:17.141Z,11.36
2018-04-12T01:24:16.397Z,11.30
2018-04-12T01:25:16.666Z,11.30
2018-04-12T01:26:16.924Z,11.48
2018-04-12T01:27:17.185Z,11.48
2018-04-12T01:28:16.442Z,11.42
2018-04-12T01:29:16.701Z,11.42
2018-04-12T01:30:16.970Z,11.42
2018-04-12T01:31:17.006Z,11.48
2018-04-12T01:32:16.265Z,11.55
2018-04-12T01:33:16.523Z,11.48
2018-04-12T01:34:16.786Z,11.42
2018-04-12T01:35:17.049Z,11.42
2018-04-12T01:36:16.316Z,11.48
2018-04-12T01:37:16.576Z,11.48
2018-04-12T01:38:16.832Z,11.42
2018-04-12T01:39:17.100Z,11.42
2018-04-12T01:40:16.373Z,11.48
2018-04-12T01:41:16.404Z,11.55
2018-04-12T01:42:16.659Z,11.61
2018-04-12T01:43:16.921Z,11.55
2018-04-12T01:44:17.177Z,11.42
2018-04-12T01:45:16.440Z,11.55
2018-04-12T01:46:16.701Z,11.42
2018-04-12T01:47:16.970Z,11.42
2018-04-12T01:48:16.236Z,11.36
2018-04-12T01:49:16.491Z,11.42
2018-04-12T01:50:16.760Z,11.42
2018-04-12T01:51:16.807Z,11.36
2018-04-12T01:52:17.068Z,11.42
2018-04-12T01:53:16.371Z,11.48
2018-04-12T01:54:16.728Z,11.55
2018-04-12T01:55:16.990Z,11.48
2018-04-12T01:56:16.257Z,11.42
2018-04-12T01:57:16.513Z,11.48
2018-04-12T01:58:16.780Z,11.61
2018-04-12T01:59:17.048Z,11.55
2018-04-12T02:00:16.332Z,11.55
2018-04-12T02:01:16.364Z,11.55
2018-04-12T02:02:16.621Z,11.42
2018-04-12T02:03:16.884Z,11.55
2018-04-12T02:04:17.181Z,11.61
2018-04-12T02:05:16.449Z,11.61
2018-04-12T02:06:16.717Z,11.61
2018-04-12T02:07:16.717Z,11.61
2018-04-12T02:08:16.975Z,11.55
2018-04-12T02:09:16.239Z,11.48
2018-04-12T02:10:16.503Z,11.48
2018-04-12T02:11:16.559Z,11.48
2018-04-12T02:12:16.821Z,11.61
2018-04-12T02:13:17.077Z,11.55
2018-04-12T02:14:16.343Z,11.48
2018-04-12T02:15:16.607Z,11.48
2018-04-12T02:16:16.865Z,11.48
2018-04-12T02:17:17.127Z,11.48
2018-04-12T02:18:16.392Z,11.48
2018-04-12T02:19:16.653Z,11.55
2018-04-12T02:20:16.928Z,11.42
2018-04-12T02:21:16.978Z,11.48
2018-04-12T02:22:16.235Z,11.48
2018-04-12T02:23:16.493Z,11.48
2018-04-12T02:24:16.756Z,11.48
2018-04-12T02:25:17.015Z,11.48
2018-04-12T02:26:16.283Z,11.55
2018-04-12T02:27:16.544Z,11.55
2018-04-12T02:28:16.802Z,11.61
2018-04-12T02:29:17.059Z,11.61
2018-04-12T02:30:16.331Z,11.61
2018-04-12T02:31:16.377Z,11.55
2018-04-12T02:32:16.648Z,11.61
2018-04-12T02:33:16.911Z,11.61
2018-04-12T02:34:16.512Z,11.55
2018-04-12T02:35:16.781Z,11.55
2018-04-12T02:36:17.076Z,11.48
2018-04-12T02:37:16.348Z,11.48
2018-04-12T02:38:16.604Z,11.42
2018-04-12T02:39:16.859Z,11.42
2018-04-12T02:40:17.134Z,11.42
2018-04-12T02:41:17.179Z,11.42
2018-04-12T02:42:16.455Z,11.42
2018-04-12T02:43:16.733Z,11.61
2018-04-12T02:44:17.007Z,11.67
2018-04-12T02:45:16.262Z,11.67
2018-04-12T02:46:16.526Z,11.67
2018-04-12T02:47:16.795Z,11.80
2018-04-12T02:48:17.056Z,11.80
2018-04-12T02:49:16.334Z,11.80
2018-04-12T02:50:16.621Z,11.92
2018-04-12T02:51:16.667Z,11.92
2018-04-12T02:52:16.928Z,11.92
2018-04-12T02:53:17.200Z,11.92
2018-04-12T02:54:16.474Z,11.92
2018-04-12T02:55:16.733Z,11.92
2018-04-12T02:56:17.007Z,11.92
2018-04-12T02:57:16.561Z,11.92
2018-04-12T02:58:16.825Z,11.98
2018-04-12T02:59:17.081Z,11.98
2018-04-12T03:00:16.356Z,11.92
2018-04-12T03:01:16.410Z,11.80
2018-04-12T03:02:16.697Z,11.86
2018-04-12T03:03:16.967Z,11.86
2018-04-12T03:04:16.247Z,11.92
2018-04-12T03:05:16.513Z,11.92
2018-04-12T03:06:16.786Z,11.86
2018-04-12T03:07:17.057Z,11.86
2018-04-12T03:08:16.318Z,11.86
2018-04-12T03:09:16.593Z,11.86
2018-04-12T03:10:16.873Z,11.73
2018-04-12T03:11:16.895Z,11.67
2018-04-12T03:12:17.157Z,11.73
2018-04-12T03:13:16.422Z,11.73
2018-04-12T03:14:16.690Z,11.73
2018-04-12T03:15:16.948Z,11.61
2018-04-12T03:16:16.202Z,11.67
2018-04-12T03:17:16.467Z,11.67
2018-04-12T03:18:16.726Z,11.61
2018-04-12T03:19:16.977Z,11.67
2018-04-12T03:20:16.245Z,11.67
2018-04-12T03:21:16.284Z,11.67
2018-04-12T03:22:16.537Z,11.67
2018-04-12T03:23:16.793Z,11.55
2018-04-12T03:24:17.057Z,11.61
2018-04-12T03:25:16.318Z,11.55
2018-04-12T03:26:16.576Z,11.55
2018-04-12T03:27:16.857Z,11.67
2018-04-12T03:28:17.117Z,11.67
2018-04-12T03:29:16.376Z,11.61
2018-04-12T03:30:16.659Z,11.67
2018-04-12T03:31:16.699Z,11.61
2018-04-12T03:32:16.957Z,11.67
2018-04-12T03:33:16.489Z,11.55
2018-04-12T03:34:16.765Z,11.55
2018-04-12T03:35:17.034Z,11.55
2018-04-12T03:36:16.296Z,11.55
2018-04-12T03:37:16.558Z,11.61
2018-04-12T03:38:16.825Z,11.61
2018-04-12T03:39:17.093Z,11.55
2018-04-12T03:40:16.359Z,11.55
2018-04-12T03:41:16.386Z,11.61
2018-04-12T03:42:16.694Z,11.48
2018-04-12T03:43:17.112Z,11.48
2018-04-12T03:44:16.383Z,11.61
2018-04-12T03:45:16.646Z,11.67
2018-04-12T03:46:16.909Z,11.61
2018-04-12T03:47:17.170Z,11.48
2018-04-12T03:48:16.436Z,11.42
2018-04-12T03:49:16.757Z,11.42
2018-04-12T03:50:17.107Z,11.30
2018-04-12T03:51:17.118Z,11.30
2018-04-12T03:52:16.380Z,11.36
2018-04-12T03:53:16.646Z,11.36
2018-04-12T03:54:16.922Z,11.42
2018-04-12T03:55:17.188Z,11.36
2018-04-12T03:56:16.455Z,11.42
2018-04-12T03:57:16.715Z,11.30
2018-04-12T03:58:16.975Z,11.30
2018-04-12T03:59:16.236Z,11.23
2018-04-12T04:00:16.516Z,11.23
2018-04-12T04:01:16.560Z,11.17
2018-04-12T04:02:16.826Z,11.11
2018-04-12T04:03:17.403Z,11.11
2018-04-12T04:04:16.680Z,11.11
2018-04-12T04:05:16.948Z,11.05
2018-04-12T04:06:16.212Z,11.11
2018-04-12T04:07:16.503Z,11.17
2018-04-12T04:08:16.766Z,11.11
2018-04-12T04:09:17.031Z,11.05
2018-04-12T04:10:16.301Z,10.98
2018-04-12T04:11:16.352Z,10.92
2018-04-12T04:12:16.629Z,10.86
2018-04-12T04:13:16.888Z,10.73
2018-04-12T04:14:17.144Z,10.61
2018-04-12T04:15:16.396Z,10.92
2018-04-12T04:16:16.652Z,10.92
2018-04-12T04:17:16.915Z,10.98
2018-04-12T04:18:17.179Z,10.98
2018-04-12T04:19:16.450Z,11.05
2018-04-12T04:20:16.719Z,10.98
2018-04-12T04:21:16.762Z,11.11
2018-04-12T04:22:17.021Z,11.17
2018-04-12T04:23:16.275Z,11.17
2018-04-12T04:24:16.552Z,11.17
2018-04-12T04:25:16.830Z,11.11
2018-04-12T04:26:17.108Z,11.05
2018-04-12T04:27:16.371Z,11.05
2018-04-12T04:28:16.632Z,11.11
2018-04-12T04:29:16.897Z,11.17
2018-04-12T04:30:17.162Z,11.23
2018-04-12T04:31:16.201Z,11.17
2018-04-12T04:32:16.464Z,11.23
2018-04-12T04:33:16.721Z,11.23
2018-04-12T04:34:16.980Z,11.17
2018-04-12T04:35:16.241Z,11.23
2018-04-12T04:36:16.504Z,11.23
2018-04-12T04:37:16.775Z,11.23
2018-04-12T04:38:17.042Z,11.30
2018-04-12T04:39:16.302Z,11.30
2018-04-12T04:40:16.560Z,11.30
2018-04-12T04:41:16.608Z,11.36
2018-04-12T04:42:16.874Z,11.30
2018-04-12T04:43:17.136Z,11.36
2018-04-12T04:44:16.397Z,11.30
2018-04-12T04:45:16.663Z,11.42
2018-04-12T04:46:16.929Z,11.30
2018-04-12T04:47:17.201Z,11.30
2018-04-12T04:48:16.499Z,11.30
2018-04-12T04:49:16.827Z,11.48
2018-04-12T04:50:17.107Z,11.55
2018-04-12T04:51:17.149Z,11.55
2018-04-12T04:52:16.418Z,11.55
2018-04-12T04:53:16.683Z,11.48
2018-04-12T04:54:16.950Z,11.48
2018-04-12T04:55:16.212Z,11.48
2018-04-12T04:56:16.472Z,11.48
2018-04-12T04:57:16.725Z,11.55
2018-04-12T04:58:16.984Z,11.61
2018-04-12T04:59:16.246Z,11.61
2018-04-12T05:00:16.515Z,11.61
2018-04-12T05:01:16.559Z,11.61
2018-04-12T05:02:16.818Z,11.67
2018-04-12T05:03:17.080Z,11.61
2018-04-12T05:04:16.344Z,11.67
2018-04-12T05:05:16.623Z,11.67
2018-04-12T05:06:16.899Z,11.67
2018-04-12T05:07:17.188Z,11.73
2018-04-12T05:08:16.501Z,11.80
2018-04-12T05:09:16.755Z,11.73
2018-04-12T05:10:17.021Z,11.67
2018-04-12T05:11:17.055Z,11.73
2018-04-12T05:12:16.322Z,11.73
2018-04-12T05:13:16.590Z,11.80
2018-04-12T05:14:16.852Z,11.73
2018-04-12T05:15:17.129Z,11.73
2018-04-12T05:16:16.403Z,11.80
2018-04-12T05:17:16.659Z,11.80
2018-04-12T05:18:16.925Z,11.73
2018-04-12T05:19:17.193Z,11.67
2018-04-12T05:20:16.468Z,11.73
2018-04-12T05:21:16.510Z,11.73
2018-04-12T05:22:16.774Z,11.80
2018-04-12T05:23:17.044Z,11.80
2018-04-12T05:24:16.303Z,11.80
2018-04-12T05:25:16.565Z,11.80
2018-04-12T05:26:16.833Z,11.86
2018-04-12T05:27:17.097Z,11.73
2018-04-12T05:28:16.363Z,11.73
2018-04-12T05:29:16.621Z,11.80
2018-04-12T05:30:16.887Z,11.86
2018-04-12T05:31:16.940Z,11.86
2018-04-12T05:32:16.203Z,11.92
2018-04-12T05:33:16.513Z,11.98
2018-04-12T05:34:16.778Z,11.98
2018-04-12T05:35:17.059Z,12.05
2018-04-12T05:36:16.355Z,12.11
2018-04-12T05:37:16.646Z,12.11
2018-04-12T05:38:16.916Z,12.05
2018-04-12T05:39:17.175Z,12.05
2018-04-12T05:40:16.455Z,12.11
2018-04-12T05:41:16.511Z,12.11
2018-04-12T05:42:16.787Z,12.11
2018-04-12T05:43:17.051Z,12.11
2018-04-12T05:44:16.311Z,12.17
2018-04-12T05:45:16.569Z,12.23
2018-04-12T05:46:16.830Z,12.30
2018-04-12T05:47:17.096Z,12.30
2018-04-12T05:48:16.356Z,12.36
2018-04-12T05:49:16.592Z,12.48
2018-04-12T05:50:16.867Z,12.48
2018-04-12T05:51:16.900Z,12.55
2018-04-12T05:52:17.171Z,12.61
2018-04-12T05:53:16.431Z,12.61
2018-04-12T05:54:16.695Z,12.55
2018-04-12T05:55:16.958Z,12.55
2018-04-12T05:56:16.224Z,12.55
2018-04-12T05:57:16.485Z,12.55
2018-04-12T05:58:16.757Z,12.48
2018-04-12T05:59:17.021Z,12.55
2018-04-12T06:00:16.285Z,12.48
2018-04-12T06:01:16.332Z,12.48
2018-04-12T06:02:16.598Z,12.42
2018-04-12T06:03:16.863Z,12.42
2018-04-12T06:04:17.121Z,12.48
2018-04-12T06:05:16.382Z,12.48
2018-04-12T06:06:16.653Z,12.48
2018-04-12T06:07:16.915Z,12.48
2018-04-12T06:08:17.184Z,12.55
2018-04-12T06:09:16.446Z,12.55
2018-04-12T06:10:16.724Z,12.55
2018-04-12T06:11:16.744Z,12.55
2018-04-12T06:12:17.008Z,12.61
2018-04-12T06:13:16.268Z,12.61
2018-04-12T06:14:16.536Z,12.67
2018-04-12T06:15:16.808Z,12.67
2018-04-12T06:16:17.083Z,12.73
2018-04-12T06:17:16.339Z,12.73
2018-04-12T06:18:16.606Z,12.73
2018-04-12T06:19:16.877Z,12.80
2018-04-12T06:20:17.164Z,12.86
2018-04-12T06:21:16.213Z,12.86
2018-04-12T06:22:16.477Z,12.80
2018-04-12T06:23:16.743Z,12.86
2018-04-12T06:24:17.014Z,12.86
2018-04-12T06:25:16.279Z,12.80
2018-04-12T06:26:16.551Z,12.86
2018-04-12T06:27:16.825Z,12.86
2018-04-12T06:28:17.090Z,12.86
2018-04-12T06:29:16.353Z,12.86
2018-04-12T06:30:16.616Z,12.86
2018-04-12T06:31:16.669Z,12.92
2018-04-12T06:32:16.926Z,12.92
2018-04-12T06:33:17.185Z,12.92
2018-04-12T06:34:16.445Z,12.98
2018-04-12T06:35:16.713Z,12.92
2018-04-12T06:36:16.979Z,12.98
2018-04-12T06:37:16.243Z,12.98
2018-04-12T06:38:16.508Z,13.05
2018-04-12T06:39:16.785Z,13.05
2018-04-12T06:40:17.084Z,13.05
2018-04-12T06:41:17.111Z,13.11
2018-04-12T06:42:16.371Z,13.17
2018-04-12T06:43:16.631Z,13.23
2018-04-12T06:44:16.892Z,13.36
2018-04-12T06:45:17.152Z,13.36
2018-04-12T06:46:16.420Z,13.36
2018-04-12T06:47:16.681Z,13.42
2018-04-12T06:48:16.971Z,13.48
2018-04-12T06:49:16.260Z,13.61
2018-04-12T06:50:16.541Z,13.63
2018-04-12T06:51:16.573Z,13.61
2018-04-12T06:52:16.846Z,13.61
2018-04-12T06:53:17.113Z,13.67
2018-04-12T06:54:16.375Z,13.73
2018-04-12T06:55:16.641Z,13.73
2018-04-12T06:56:16.911Z,13.73
2018-04-12T06:57:17.183Z,13.73
2018-04-12T06:58:16.440Z,13.80
2018-04-12T06:59:16.701Z,13.73
2018-04-12T07:00:16.977Z,13.80
2018-04-12T07:01:17.014Z,13.86
2018-04-12T07:02:16.277Z,13.86
2018-04-12T07:03:16.540Z,13.80
2018-04-12T07:04:16.795Z,13.86
2018-04-12T07:05:17.064Z,13.92
2018-04-12T07:06:16.318Z,13.92
2018-04-12T07:07:16.596Z,13.86
2018-04-12T07:08:16.859Z,13.92
2018-04-12T07:09:17.123Z,13.92
2018-04-12T07:10:16.378Z,13.98
2018-04-12T07:11:16.437Z,13.98
2018-04-12T07:12:16.701Z,13.98
2018-04-12T07:13:16.960Z,14.05
2018-04-12T07:14:16.227Z,14.05
2018-04-12T07:15:16.489Z,14.05
2018-04-12T07:16:16.754Z,14.11
2018-04-12T07:17:17.019Z,14.17
2018-04-12T07:18:16.284Z,14.17
2018-04-12T07:19:16.575Z,14.30
2018-04-12T07:20:16.870Z,14.36
2018-04-12T07:21:16.930Z,14.30
2018-04-12T07:22:17.186Z,14.48
2018-04-12T07:23:16.450Z,14.61
2018-04-12T07:24:16.737Z,14.67
2018-04-12T07:25:17.002Z,14.73
2018-04-12T07:26:16.260Z,14.92
2018-04-12T07:27:16.526Z,14.92
2018-04-12T07:28:16.789Z,15.05
2018-04-12T07:29:17.048Z,14.98
2018-04-12T07:30:16.311Z,15.05
2018-04-12T07:31:16.368Z,15.11
2018-04-12T07:32:16.636Z,15.17
2018-04-12T07:33:16.899Z,15.23
2018-04-12T07:34:17.161Z,15.30
2018-04-12T07:35:16.425Z,15.42
2018-04-12T07:36:16.953Z,15.36
2018-04-12T07:37:16.216Z,15.48
2018-04-12T07:38:16.478Z,15.48
2018-04-12T07:39:16.741Z,15.48
2018-04-12T07:40:17.019Z,15.48
2018-04-12T07:41:17.042Z,15.55
2018-04-12T07:42:16.302Z,15.67
2018-04-12T07:43:16.561Z,15.80
2018-04-12T07:44:16.827Z,15.80
2018-04-12T07:45:17.101Z,15.73
2018-04-12T07:46:16.360Z,15.80
2018-04-12T07:47:16.625Z,15.92
2018-04-12T07:48:16.892Z,15.92
2018-04-12T07:49:17.157Z,15.86
2018-04-12T07:50:16.450Z,15.86
2018-04-12T07:51:16.462Z,15.86
2018-04-12T07:52:16.726Z,15.86
2018-04-12T07:53:16.993Z,15.98
2018-04-12T07:54:16.278Z,16.11
2018-04-12T07:55:16.544Z,16.17
2018-04-12T07:56:16.801Z,16.30
2018-04-12T07:57:17.054Z,16.36
2018-04-12T07:58:16.318Z,16.48
2018-04-12T07:59:16.581Z,16.55
2018-04-12T08:00:16.853Z,16.42
2018-04-12T08:01:16.897Z,16.42
2018-04-12T08:02:17.165Z,16.61
2018-04-12T08:03:16.423Z,16.55
2018-04-12T08:04:16.690Z,16.61
2018-04-12T08:05:17.326Z,16.67
2018-04-12T08:06:16.593Z,16.67
2018-04-12T08:07:16.866Z,16.73
2018-04-12T08:08:17.126Z,16.61
2018-04-12T08:09:16.389Z,16.61
2018-04-12T08:10:16.659Z,16.55
2018-04-12T08:11:16.709Z,16.61
2018-04-12T08:12:16.976Z,16.67
2018-04-12T08:13:16.233Z,16.61
2018-04-12T08:14:16.498Z,16.73
2018-04-12T08:15:16.764Z,16.86
2018-04-12T08:16:17.040Z,16.92
2018-04-12T08:17:16.318Z,16.98
2018-04-12T08:18:16.583Z,17.11
2018-04-12T08:19:16.858Z,17.11
2018-04-12T08:20:17.123Z,16.98
2018-04-12T08:21:17.144Z,16.92
2018-04-12T08:22:16.405Z,16.92
2018-04-12T08:23:16.668Z,16.98
2018-04-12T08:24:16.939Z,17.11
2018-04-12T08:25:16.209Z,17.17
2018-04-12T08:26:16.476Z,17.17
2018-04-12T08:27:16.731Z,17.42
2018-04-12T08:28:16.989Z,17.42
2018-04-12T08:29:16.252Z,17.42
2018-04-12T08:30:16.521Z,17.36
2018-04-12T08:31:16.574Z,17.42
2018-04-12T08:32:16.828Z,17.36
2018-04-12T08:33:17.103Z,17.36
2018-04-12T08:34:16.369Z,17.73
2018-04-12T08:35:16.635Z,17.92
2018-04-12T08:36:16.898Z,17.98
2018-04-12T08:37:17.425Z,17.67
2018-04-12T08:38:16.692Z,17.67
2018-04-12T08:39:16.954Z,17.61
2018-04-12T08:40:16.214Z,17.67
2018-04-12T08:41:16.264Z,17.61
2018-04-12T08:42:16.532Z,17.67
2018-04-12T08:43:16.794Z,17.86
2018-04-12T08:44:17.074Z,17.98
2018-04-12T08:45:16.336Z,18.11
2018-04-12T08:46:16.600Z,18.30
2018-04-12T08:47:16.863Z,18.23
2018-04-12T08:48:17.138Z,18.23
2018-04-12T08:49:16.417Z,18.42
2018-04-12T08:50:16.687Z,18.42
2018-04-12T08:51:16.731Z,18.48
2018-04-12T08:52:16.991Z,18.67
2018-04-12T08:53:16.245Z,18.86
2018-04-12T08:54:16.502Z,18.92
2018-04-12T08:55:16.768Z,19.11
2018-04-12T08:56:17.038Z,19.17
2018-04-12T08:57:16.310Z,19.17
2018-04-12T08:58:16.580Z,19.11
2018-04-12T08:59:16.852Z,19.30
2018-04-12T09:00:17.122Z,19.23
2018-04-12T09:01:17.177Z,19.36
2018-04-12T09:02:16.496Z,19.23
2018-04-12T09:03:16.752Z,19.17
2018-04-12T09:04:17.013Z,19.11
2018-04-12T09:05:16.282Z,19.30
2018-04-12T09:06:16.551Z,19.48
2018-04-12T09:07:16.820Z,19.42
2018-04-12T09:08:17.082Z,19.55
2018-04-12T09:09:16.343Z,19.48
2018-04-12T09:10:16.612Z,19.61
2018-04-12T09:11:16.660Z,19.61
2018-04-12T09:12:16.959Z,19.67
2018-04-12T09:13:16.381Z,19.80
2018-04-12T09:14:16.639Z,19.80
2018-04-12T09:15:16.902Z,19.92
2018-04-12T09:16:17.169Z,19.86
2018-04-12T09:17:16.430Z,19.86
2018-04-12T09:18:16.702Z,19.92
2018-04-12T09:19:16.975Z,19.92
2018-04-12T09:20:16.252Z,20.05
2018-04-12T09:21:16.295Z,20.30
2018-04-12T09:22:16.563Z,20.48
2018-04-12T09:23:16.831Z,21.67
2018-04-12T09:24:17.092Z,22.73
2018-04-12T09:25:16.355Z,23.48
2018-04-12T09:26:16.615Z,23.73
2018-04-12T09:27:16.877Z,23.98
2018-04-12T09:28:17.148Z,23.98
2018-04-12T09:29:16.426Z,23.92
2018-04-12T09:30:16.709Z,24.42
2018-04-12T09:31:16.729Z,24.67
2018-04-12T09:32:16.996Z,24.61
2018-04-12T09:33:16.269Z,24.48
2018-04-12T09:34:16.574Z,24.86
2018-04-12T09:35:16.883Z,24.86
2018-04-12T09:36:17.153Z,24.48
2018-04-12T09:37:16.428Z,25.11
2018-04-12T09:38:16.696Z,24.73
2018-04-12T09:39:16.961Z,25.11
2018-04-12T09:40:16.225Z,24.61
2018-04-12T09:41:16.323Z,23.98
2018-04-12T09:42:16.631Z,24.36
2018-04-12T09:43:16.895Z,25.48
2018-04-12T09:44:17.165Z,24.98
2018-04-12T09:45:16.432Z,24.80
2018-04-12T09:46:16.954Z,24.36
2018-04-12T09:47:16.266Z,23.80
2018-04-12T09:48:16.533Z,23.23
2018-04-12T09:49:16.835Z,22.61
2018-04-12T09:50:16.290Z,22.11
2018-04-12T09:51:16.347Z,22.05
2018-04-12T09:52:16.612Z,21.67
2018-04-12T09:53:16.926Z,21.67
2018-04-12T09:54:17.184Z,21.55
2018-04-12T09:55:16.440Z,21.61
2018-04-12T09:56:16.699Z,21.61
2018-04-12T09:57:16.956Z,21.55
2018-04-12T09:58:16.207Z,21.61
2018-04-12T09:59:16.468Z,21.67
2018-04-12T10:00:16.747Z,21.67
2018-04-12T10:01:16.797Z,21.73
2018-04-12T10:02:17.064Z,21.80
2018-04-12T10:03:16.320Z,21.73
2018-04-12T10:04:16.591Z,21.73
2018-04-12T10:05:16.850Z,21.67
2018-04-12T10:06:17.109Z,21.67
2018-04-12T10:07:16.379Z,21.67
2018-04-12T10:08:16.640Z,21.61
2018-04-12T10:09:16.900Z,21.55
2018-04-12T10:10:17.175Z,21.48
2018-04-12T10:11:16.226Z,21.55
2018-04-12T10:12:16.486Z,21.48
2018-04-12T10:13:16.752Z,21.36
2018-04-12T10:14:17.005Z,21.42
2018-04-12T10:15:16.269Z,21.36
2018-04-12T10:16:16.524Z,21.23
2018-04-12T10:17:16.788Z,21.30
2018-04-12T10:18:17.054Z,21.42
2018-04-12T10:19:16.318Z,21.55
2018-04-12T10:20:16.574Z,21.61
2018-04-12T10:21:16.623Z,21.61
2018-04-12T10:22:16.882Z,21.30
2018-04-12T10:23:17.150Z,21.36
2018-04-12T10:24:16.419Z,21.36
2018-04-12T10:25:16.687Z,21.42
2018-04-12T10:26:16.950Z,21.55
2018-04-12T10:27:16.215Z,21.61
2018-04-12T10:28:16.468Z,21.61
2018-04-12T10:29:16.746Z,21.67
2018-04-12T10:30:17.016Z,21.73
2018-04-12T10:31:17.055Z,21.80
2018-04-12T10:32:16.318Z,21.92
2018-04-12T10:33:16.581Z,21.80
2018-04-12T10:34:16.837Z,21.98
2018-04-12T10:35:17.110Z,21.98
2018-04-12T10:36:16.371Z,22.11
2018-04-12T10:37:16.635Z,22.23
2018-04-12T10:38:16.896Z,22.36
2018-04-12T10:39:17.167Z,22.55
2018-04-12T10:40:16.519Z,22.42
2018-04-12T10:41:16.547Z,22.36
2018-04-12T10:42:16.816Z,22.23
2018-04-12T10:43:17.077Z,22.23
2018-04-12T10:44:16.350Z,22.36
2018-04-12T10:45:16.622Z,22.36
2018-04-12T10:46:16.891Z,22.17
2018-04-12T10:47:17.147Z,22.05
2018-04-12T10:48:16.406Z,22.48
2018-04-12T10:49:16.660Z,22.73
2018-04-12T10:50:16.947Z,22.98
2018-04-12T10:51:16.973Z,22.80
2018-04-12T10:52:16.242Z,22.86
2018-04-12T10:53:16.503Z,22.80
2018-04-12T10:54:16.766Z,22.55
2018-04-12T10:55:17.049Z,22.55
2018-04-12T10:56:16.319Z,22.54
2018-04-12T10:57:16.588Z,22.48
2018-04-12T10:58:16.848Z,22.48
2018-04-12T10:59:17.110Z,22.46
2018-04-12T11:00:16.382Z,22.45
2018-04-12T11:01:16.432Z,22.73
2018-04-12T11:02:16.699Z,22.59
2018-04-12T11:03:16.953Z,22.46
2018-04-12T11:04:16.214Z,22.73
2018-04-12T11:05:16.482Z,22.73
2018-04-12T11:06:16.741Z,22.60
2018-04-12T11:07:17.007Z,22.92
2018-04-12T11:08:16.264Z,23.11
2018-04-12T11:09:16.523Z,23.11
2018-04-12T11:10:16.789Z,23.30
2018-04-12T11:11:16.852Z,23.36
2018-04-12T11:12:17.155Z,23.17
2018-04-12T11:13:16.456Z,23.23
2018-04-12T11:14:16.733Z,23.42
2018-04-12T11:15:16.994Z,23.42
2018-04-12T11:16:16.250Z,23.67
2018-04-12T11:17:16.527Z,23.61
2018-04-12T11:18:16.804Z,23.42
2018-04-12T11:19:16.203Z,23.30
2018-04-12T11:20:16.471Z,23.11
2018-04-12T11:21:16.531Z,23.11
2018-04-12T11:22:16.875Z,22.98
2018-04-12T11:23:17.138Z,23.11
2018-04-12T11:24:16.475Z,23.23
2018-04-12T11:25:16.827Z,23.36
2018-04-12T11:26:17.169Z,23.17
2018-04-12T11:27:16.448Z,23.30
2018-04-12T11:28:16.711Z,23.23
2018-04-12T11:29:16.996Z,23.36
2018-04-12T11:30:16.309Z,23.23
2018-04-12T11:31:16.356Z,23.30
2018-04-12T11:32:16.616Z,23.17
2018-04-12T11:33:16.877Z,23.11
2018-04-12T11:34:17.175Z,23.17
2018-04-12T11:35:16.553Z,23.17
2018-04-12T11:36:16.807Z,23.23
2018-04-12T11:37:17.063Z,23.23
2018-04-12T11:38:16.323Z,23.23
2018-04-12T11:39:16.578Z,23.11
2018-04-12T11:40:16.845Z,23.30
2018-04-12T11:41:16.894Z,23.11
2018-04-12T11:42:17.160Z,23.48
2018-04-12T11:43:16.413Z,23.48
2018-04-12T11:44:16.682Z,23.48
2018-04-12T11:45:16.956Z,23.55
2018-04-12T11:46:16.297Z,23.55
2018-04-12T11:47:16.561Z,23.61
2018-04-12T11:48:16.821Z,23.61
2018-04-12T11:49:17.096Z,23.22
2018-04-12T11:50:16.370Z,22.91
2018-04-12T11:51:16.396Z,23.11
2018-04-12T11:52:16.656Z,23.11
2018-04-12T11:53:16.917Z,23.05
2018-04-12T11:54:17.171Z,22.98
2018-04-12T11:55:16.432Z,22.92
2018-04-12T11:56:16.694Z,22.91
2018-04-12T11:57:16.960Z,22.92
2018-04-12T11:58:16.228Z,22.86
2018-04-12T11:59:16.500Z,23.23
2018-04-12T12:00:16.778Z,23.30
2018-04-12T12:01:16.809Z,23.48
2018-04-12T12:02:17.128Z,23.12
2018-04-12T12:03:16.433Z,23.27
2018-04-12T12:04:16.712Z,22.77
2018-04-12T12:05:16.985Z,22.66
2018-04-12T12:06:16.248Z,22.77
2018-04-12T12:07:16.510Z,22.77
2018-04-12T12:08:16.788Z,22.95
2018-04-12T12:09:17.043Z,23.02
2018-04-12T12:10:16.316Z,22.93
2018-04-12T12:11:16.392Z,22.73
2018-04-12T12:12:16.663Z,23.01
2018-04-12T12:13:16.925Z,22.93
2018-04-12T12:14:17.185Z,22.79
2018-04-12T12:15:16.446Z,22.84
2018-04-12T12:16:16.711Z,22.86
2018-04-12T12:17:16.972Z,23.13
2018-04-12T12:18:16.236Z,23.37
2018-04-12T12:19:16.501Z,23.48
2018-04-12T12:20:16.761Z,23.50
2018-04-12T12:21:16.815Z,23.57
2018-04-12T12:22:17.072Z,23.36
2018-04-12T12:23:16.335Z,23.11
2018-04-12T12:24:16.598Z,23.22
2018-04-12T12:25:16.859Z,23.09
2018-04-12T12:26:17.122Z,23.12
2018-04-12T12:27:16.387Z,23.11
2018-04-12T12:28:16.652Z,22.93
2018-04-12T12:29:16.913Z,23.06
2018-04-12T12:30:17.192Z,22.97
2018-04-12T12:31:16.234Z,22.91
2018-04-12T12:32:16.503Z,23.01
2018-04-12T12:33:16.766Z,23.15
2018-04-12T12:34:17.028Z,23.01
2018-04-12T12:35:16.289Z,23.18
2018-04-12T12:36:16.553Z,23.11
2018-04-12T12:37:16.814Z,23.19
2018-04-12T12:38:17.114Z,23.12
2018-04-12T12:39:16.393Z,23.23
2018-04-12T12:40:16.658Z,23.20
2018-04-12T12:41:16.707Z,23.27
2018-04-12T12:42:16.973Z,23.27
2018-04-12T12:43:16.238Z,23.13
2018-04-12T12:44:16.503Z,23.26
2018-04-12T12:45:16.766Z,23.09
2018-04-12T12:46:17.034Z,23.01
2018-04-12T12:47:16.298Z,23.12
2018-04-12T12:48:16.566Z,23.26
2018-04-12T12:49:16.869Z,22.95
2018-04-12T12:50:17.134Z,22.68
2018-04-12T12:51:17.360Z,22.61
2018-04-12T12:52:16.623Z,22.86
2018-04-12T12:53:16.884Z,23.01
2018-04-12T12:54:17.151Z,23.23